createdAt,value
2018-06-03T00:05:02.492Z,13.40
2018-06-03T00:07:30.143Z,13.40
2018-06-03T00:09:57.824Z,13.40
2018-06-03T00:17:20.570Z,13.30
2018-06-03T00:19:48.274Z,13.30
2018-06-03T00:22:26.588Z,13.30
2018-06-03T00:24:54.250Z,13.20
2018-06-03T00:27:21.950Z,13.10
2018-06-03T00:29:49.616Z,13.10
2018-06-03T00:32:17.285Z,13.00
2018-06-03T00:37:12.541Z,12.90
2018-06-03T00:39:40.199Z,12.90
2018-06-03T00:42:07.857Z,12.90
2018-06-03T00:44:35.523Z,12.90
2018-06-03T00:54:25.733Z,12.70
2018-06-03T00:59:26.666Z,12.70
2018-06-03T01:01:54.290Z,12.60
2018-06-03T01:04:21.994Z,12.70
2018-06-03T01:06:49.619Z,12.60
2018-06-03T01:09:17.289Z,12.50
2018-06-03T01:11:44.884Z,12.60
2018-06-03T01:14:12.515Z,12.50
2018-06-03T01:16:40.115Z,12.50
2018-06-03T01:19:07.829Z,12.50
2018-06-03T01:21:35.471Z,12.40
2018-06-03T01:24:03.204Z,12.50
2018-06-03T01:26:30.884Z,12.40
2018-06-03T01:28:58.529Z,12.40
2018-06-03T01:31:26.224Z,12.50
2018-06-03T01:33:53.878Z,12.40
2018-06-03T01:36:21.544Z,12.50
2018-06-03T01:46:11.694Z,12.20
2018-06-03T01:53:34.319Z,12.20
2018-06-03T01:58:29.492Z,12.20
2018-06-03T02:00:57.138Z,12.20
2018-06-03T02:03:24.745Z,12.20
2018-06-03T02:05:52.384Z,12.20
2018-06-03T02:08:20.060Z,12.10
2018-06-03T02:10:47.644Z,12.10
2018-06-03T02:13:15.250Z,12.20
2018-06-03T02:15:42.911Z,12.10
2018-06-03T02:18:10.596Z,12.10
2018-06-03T02:20:38.222Z,12.00
2018-06-03T02:23:05.900Z,12.10
2018-06-03T02:25:33.481Z,12.10
2018-06-03T02:28:01.144Z,12.10
2018-06-03T02:32:56.302Z,12.10
2018-06-03T02:35:23.916Z,12.10
2018-06-03T02:37:51.588Z,12.10
2018-06-03T02:40:19.236Z,12.00
2018-06-03T02:42:46.841Z,12.10
2018-06-03T02:45:14.472Z,12.00
2018-06-03T02:50:09.617Z,11.90
2018-06-03T02:52:37.218Z,11.80
2018-06-03T02:57:32.487Z,11.70
2018-06-03T03:00:00.128Z,11.60
2018-06-03T03:02:27.748Z,11.60
2018-06-03T03:07:22.905Z,11.50
2018-06-03T03:09:50.551Z,11.50
2018-06-03T03:17:13.262Z,11.50
2018-06-03T03:19:40.932Z,11.50
2018-06-03T03:22:08.596Z,11.50
2018-06-03T03:24:36.251Z,11.50
2018-06-03T03:29:31.404Z,11.60
2018-06-03T03:31:59.050Z,11.70
2018-06-03T03:34:26.676Z,11.70
2018-06-03T03:36:54.307Z,11.80
2018-06-03T03:39:21.951Z,11.80
2018-06-03T03:44:17.085Z,11.60
2018-06-03T03:46:44.722Z,11.50
2018-06-03T03:49:12.380Z,11.40
2018-06-03T03:51:41.007Z,11.50
2018-06-03T03:59:03.703Z,11.50
2018-06-03T04:03:58.850Z,11.50
2018-06-03T04:06:26.436Z,11.50
2018-06-03T04:08:54.145Z,11.60
2018-06-03T04:11:21.741Z,11.70
2018-06-03T04:13:50.321Z,11.70
2018-06-03T04:16:18.461Z,11.70
2018-06-03T04:18:46.199Z,11.70
2018-06-03T04:21:13.823Z,11.80
2018-06-03T04:23:41.500Z,11.70
2018-06-03T04:28:36.695Z,11.80
2018-06-03T04:31:04.322Z,11.90
2018-06-03T04:33:31.960Z,11.90
2018-06-03T04:35:59.616Z,11.90
2018-06-03T04:40:54.840Z,11.90
2018-06-03T04:43:22.544Z,12.00
2018-06-03T04:48:17.722Z,12.10
2018-06-03T04:50:45.375Z,12.10
2018-06-03T04:55:40.512Z,12.30
2018-06-03T05:00:35.698Z,12.50
2018-06-03T05:03:03.318Z,12.50
2018-06-03T05:05:30.978Z,12.50
2018-06-03T05:07:58.609Z,12.60
2018-06-03T05:12:53.792Z,12.70
2018-06-03T05:20:16.551Z,12.90
2018-06-03T05:27:39.285Z,13.20
2018-06-03T05:30:06.971Z,13.30
2018-06-03T05:32:34.645Z,13.40
2018-06-03T05:35:02.296Z,13.50
2018-06-03T05:37:29.937Z,13.60
2018-06-03T05:39:57.587Z,13.70
2018-06-03T05:42:25.260Z,13.90
2018-06-03T05:44:52.848Z,13.90
2018-06-03T05:49:48.086Z,14.30
2018-06-03T05:52:15.756Z,14.50
2018-06-03T05:54:43.380Z,14.60
2018-06-03T05:59:38.557Z,14.90
2018-06-03T06:02:06.195Z,15.20
2018-06-03T06:09:28.994Z,15.60
2018-06-03T06:11:56.672Z,15.80
2018-06-03T06:14:24.371Z,15.90
2018-06-03T06:16:52.043Z,16.00
2018-06-03T06:19:19.768Z,16.20
2018-06-03T06:21:47.465Z,16.30
2018-06-03T06:24:15.180Z,16.40
2018-06-03T06:29:10.442Z,16.70
2018-06-03T06:31:38.076Z,16.80
2018-06-03T06:34:05.800Z,16.90
2018-06-03T06:39:00.933Z,17.10
2018-06-03T06:41:28.599Z,17.20
2018-06-03T06:43:56.301Z,17.30
2018-06-03T06:46:23.960Z,17.40
2018-06-03T06:48:51.711Z,17.50
2018-06-03T06:51:19.434Z,17.50
2018-06-03T06:53:47.127Z,17.60
2018-06-03T06:56:14.792Z,17.70
2018-06-03T07:01:09.939Z,18.00
2018-06-03T07:03:37.536Z,18.00
2018-06-03T07:06:05.196Z,18.20
2018-06-03T07:08:32.876Z,18.20
2018-06-03T07:11:00.615Z,18.40
2018-06-03T07:15:55.768Z,18.50
2018-06-03T07:18:23.453Z,18.70
2018-06-03T07:20:51.151Z,18.90
2018-06-03T07:28:13.894Z,19.30
2018-06-03T07:33:10.081Z,19.40
2018-06-03T07:40:32.967Z,19.70
2018-06-03T07:43:00.668Z,19.80
2018-06-03T07:45:28.380Z,19.80
2018-06-03T07:47:56.108Z,19.80
2018-06-03T07:52:51.368Z,19.90
2018-06-03T07:55:19.050Z,19.90
2018-06-03T07:57:46.739Z,19.90
2018-06-03T08:00:14.404Z,20.00
2018-06-03T08:02:42.212Z,20.00
2018-06-03T08:05:09.845Z,20.10
2018-06-03T08:07:37.535Z,20.10
2018-06-03T08:10:05.284Z,20.10
2018-06-03T08:12:32.937Z,20.30
2018-06-03T08:15:00.637Z,20.30
2018-06-03T08:17:28.272Z,20.40
2018-06-03T08:19:56.012Z,20.50
2018-06-03T08:22:23.673Z,20.60
2018-06-03T08:29:46.529Z,20.90
2018-06-03T08:32:14.183Z,21.10
2018-06-03T08:37:09.444Z,21.10
2018-06-03T08:42:04.724Z,21.30
2018-06-03T08:44:32.479Z,21.50
2018-06-03T08:49:27.655Z,21.80
2018-06-03T08:51:55.310Z,21.80
2018-06-03T08:54:22.939Z,21.80
2018-06-03T08:56:50.642Z,21.60
2018-06-03T08:59:18.333Z,21.40
2018-06-03T09:01:46.080Z,21.30
2018-06-03T09:04:13.690Z,21.40
2018-06-03T09:06:41.327Z,21.60
2018-06-03T09:09:08.970Z,21.80
2018-06-03T09:11:36.669Z,21.80
2018-06-03T09:18:59.403Z,21.60
2018-06-03T09:23:54.646Z,21.10
2018-06-03T09:26:22.308Z,20.80
2018-06-03T09:31:17.509Z,20.40
2018-06-03T09:33:46.129Z,20.50
2018-06-03T09:36:13.763Z,20.50
2018-06-03T09:38:41.553Z,20.60
2018-06-03T09:43:36.707Z,21.10
2018-06-03T09:46:04.389Z,21.40
2018-06-03T09:48:32.068Z,21.70
2018-06-03T09:50:59.740Z,21.80
2018-06-03T09:53:27.457Z,21.90
2018-06-03T09:55:55.065Z,22.00
2018-06-03T09:58:22.754Z,22.20
2018-06-03T10:00:50.387Z,22.30
2018-06-03T10:08:13.184Z,22.60
2018-06-03T10:13:08.410Z,22.90
2018-06-03T10:18:03.680Z,23.20
2018-06-03T10:20:31.388Z,23.30
2018-06-03T10:22:59.054Z,23.60
2018-06-03T10:25:26.734Z,23.70
2018-06-03T10:27:54.424Z,23.90
2018-06-03T10:30:22.053Z,23.60
2018-06-03T10:32:49.723Z,23.40
2018-06-03T10:35:17.422Z,23.40
2018-06-03T10:40:12.685Z,22.90
2018-06-03T10:45:07.906Z,23.10
2018-06-03T10:50:03.191Z,23.50
2018-06-03T10:52:30.849Z,23.70
2018-06-03T10:54:58.499Z,23.70
2018-06-03T10:57:26.123Z,23.80
2018-06-03T10:59:53.902Z,23.80
2018-06-03T11:02:21.613Z,23.90
2018-06-03T11:04:49.219Z,24.00
2018-06-03T11:07:19.738Z,24.00
2018-06-03T11:09:50.547Z,23.90
2018-06-03T11:12:19.064Z,23.90
2018-06-03T11:14:46.753Z,23.70
2018-06-03T11:17:14.389Z,23.60
2018-06-03T11:19:42.080Z,23.60
2018-06-03T11:22:09.744Z,23.80
2018-06-03T11:24:37.374Z,23.80
2018-06-03T11:29:32.634Z,23.60
2018-06-03T11:32:00.337Z,23.40
2018-06-03T11:39:23.133Z,23.40
2018-06-03T11:41:50.815Z,23.60
2018-06-03T11:44:18.490Z,23.60
2018-06-03T11:49:13.685Z,23.50
2018-06-03T11:51:41.410Z,23.60
2018-06-03T11:54:09.100Z,23.60
2018-06-03T11:56:47.916Z,23.60
2018-06-03T11:59:26.900Z,23.70
2018-06-03T12:04:22.260Z,24.00
2018-06-03T12:11:45.048Z,24.10
2018-06-03T12:14:12.736Z,24.30
2018-06-03T12:19:08.059Z,24.40
2018-06-03T12:21:35.776Z,24.20
2018-06-03T12:28:58.618Z,23.50
2018-06-03T12:31:27.073Z,23.40
2018-06-03T12:33:54.809Z,23.40
2018-06-03T12:36:22.521Z,23.60
2018-06-03T12:43:45.321Z,24.00
2018-06-03T12:46:12.986Z,24.10
2018-06-03T12:48:40.663Z,24.10
2018-06-03T12:53:35.739Z,24.30
2018-06-03T12:56:03.501Z,24.30
2018-06-03T12:58:31.117Z,24.50
2018-06-03T13:00:58.685Z,24.70
2018-06-03T13:03:26.314Z,25.10
2018-06-03T13:05:53.951Z,25.40
2018-06-03T13:08:21.609Z,25.60
2018-06-03T13:10:49.195Z,25.80
2018-06-03T13:13:16.815Z,25.80
2018-06-03T13:15:44.419Z,25.90
2018-06-03T13:18:12.019Z,26.10
2018-06-03T13:20:39.639Z,26.60
2018-06-03T13:23:07.255Z,26.70
2018-06-03T13:25:34.836Z,26.00
2018-06-03T13:28:02.491Z,26.00
2018-06-03T13:30:30.081Z,26.10
2018-06-03T13:32:57.754Z,26.20
2018-06-03T13:35:25.336Z,26.10
2018-06-03T13:37:52.969Z,26.40
2018-06-03T13:45:16.760Z,28.30
2018-06-03T13:47:44.327Z,28.70
2018-06-03T13:50:11.985Z,28.90
2018-06-03T13:52:39.526Z,29.00
2018-06-03T13:57:36.300Z,29.00
2018-06-03T14:00:04.301Z,29.40
2018-06-03T14:02:31.865Z,29.60
2018-06-03T14:04:59.459Z,29.20
2018-06-03T14:07:27.000Z,28.80
2018-06-03T14:09:54.581Z,28.40
2018-06-03T14:12:22.239Z,28.60
2018-06-03T14:14:49.880Z,29.00
2018-06-03T14:17:17.491Z,29.10
2018-06-03T14:19:45.131Z,28.90
2018-06-03T14:22:12.756Z,28.60
2018-06-03T14:27:07.875Z,27.80
2018-06-03T14:29:35.480Z,27.20
2018-06-03T14:32:03.076Z,26.90
2018-06-03T14:34:30.654Z,26.70
2018-06-03T14:36:58.296Z,26.60
2018-06-03T14:39:25.856Z,26.80
2018-06-03T14:41:53.484Z,26.90
2018-06-03T14:46:48.580Z,26.10
2018-06-03T14:49:16.200Z,25.60
2018-06-03T14:51:43.819Z,25.10
2018-06-03T14:54:11.484Z,24.60
2018-06-03T14:56:39.111Z,24.20
2018-06-03T14:59:06.658Z,24.00
2018-06-03T15:01:34.222Z,24.00
2018-06-03T15:04:01.846Z,24.40
2018-06-03T15:08:56.960Z,23.80
2018-06-03T15:11:24.526Z,25.10
2018-06-03T15:13:52.113Z,25.80
2018-06-03T15:16:19.734Z,26.70
2018-06-03T15:18:47.379Z,27.20
2018-06-03T15:21:14.973Z,27.50
2018-06-03T15:23:42.632Z,27.70
2018-06-03T15:26:10.331Z,27.80
2018-06-03T15:31:05.817Z,28.00
2018-06-03T15:38:28.437Z,27.60
2018-06-03T15:40:56.115Z,27.50
2018-06-03T15:43:23.742Z,27.30
2018-06-03T15:45:51.390Z,27.20
2018-06-03T15:48:18.985Z,27.00
2018-06-03T15:50:46.621Z,26.80
2018-06-03T15:53:14.195Z,26.40
2018-06-03T15:55:41.817Z,26.20
2018-06-03T15:58:09.554Z,26.00
2018-06-03T16:00:37.256Z,25.80
2018-06-03T16:03:04.947Z,25.60
2018-06-03T16:05:32.564Z,25.50
2018-06-03T16:08:00.241Z,25.40
2018-06-03T16:10:27.791Z,25.30
2018-06-03T16:15:22.948Z,25.20
2018-06-03T16:17:50.611Z,25.20
2018-06-03T16:20:18.221Z,25.30
2018-06-03T16:22:47.301Z,25.40
2018-06-03T16:32:37.438Z,25.40
2018-06-03T16:39:59.976Z,25.30
2018-06-03T16:42:27.610Z,25.20
2018-06-03T16:44:55.218Z,25.10
2018-06-03T16:47:22.859Z,25.00
2018-06-03T16:49:50.433Z,25.00
2018-06-03T16:52:18.068Z,25.10
2018-06-03T16:54:45.683Z,25.00
2018-06-03T16:57:13.385Z,25.10
2018-06-03T16:59:41.066Z,25.10
2018-06-03T17:02:08.672Z,25.20
2018-06-03T17:04:38.171Z,25.20
2018-06-03T17:07:05.815Z,25.20
2018-06-03T17:09:33.406Z,25.00
2018-06-03T17:14:28.539Z,24.90
2018-06-03T17:16:56.151Z,24.90
2018-06-03T17:19:23.821Z,24.90
2018-06-03T17:21:51.441Z,24.70
2018-06-03T17:24:19.085Z,24.40
2018-06-03T17:26:46.653Z,24.30
2018-06-03T17:29:14.217Z,24.30
2018-06-03T17:31:41.838Z,24.20
2018-06-03T17:36:37.016Z,24.00
2018-06-03T17:39:06.897Z,23.80
2018-06-03T17:41:34.514Z,23.40
2018-06-03T17:44:02.351Z,23.20
2018-06-03T17:46:29.974Z,23.20
2018-06-03T17:48:57.569Z,22.90
2018-06-03T17:53:52.930Z,22.60
2018-06-03T17:56:20.600Z,22.30
2018-06-03T18:06:10.940Z,21.80
2018-06-03T18:11:06.085Z,21.70
2018-06-03T18:18:28.753Z,21.50
2018-06-03T18:20:56.447Z,21.40
2018-06-03T18:23:24.145Z,21.20
2018-06-03T18:28:19.429Z,21.00
2018-06-03T18:33:14.711Z,20.70
2018-06-03T18:38:10.040Z,20.50
2018-06-03T18:43:06.013Z,20.30
2018-06-03T18:45:33.654Z,20.20
2018-06-03T18:48:02.207Z,20.00
2018-06-03T18:52:57.328Z,19.80
2018-06-03T18:57:52.684Z,19.60
2018-06-03T19:00:20.345Z,19.50
2018-06-03T19:10:11.126Z,19.20
2018-06-03T19:12:38.798Z,19.00
2018-06-03T19:20:01.641Z,18.80
2018-06-03T19:22:29.412Z,18.70
2018-06-03T19:24:57.505Z,18.50
2018-06-03T19:27:25.371Z,18.40
2018-06-03T19:32:21.174Z,18.30
2018-06-03T19:34:48.849Z,18.20
2018-06-03T19:37:16.677Z,18.20
2018-06-03T19:42:12.192Z,18.00
2018-06-03T19:47:07.759Z,17.90
2018-06-03T19:49:35.660Z,17.70
2018-06-03T19:52:03.483Z,17.70
2018-06-03T19:56:59.013Z,17.50
2018-06-03T19:59:26.671Z,17.50
2018-06-03T20:01:54.307Z,17.40
2018-06-03T20:06:49.579Z,17.30
2018-06-03T20:11:44.865Z,17.10
2018-06-03T20:14:12.931Z,17.10
2018-06-03T20:21:36.180Z,17.00
2018-06-03T20:33:55.433Z,16.70
2018-06-03T20:38:53.027Z,16.50
2018-06-03T21:27:47.302Z,16.20
2018-06-03T21:37:39.082Z,16.10
2018-06-03T21:40:08.246Z,16.10
2018-06-03T21:54:58.224Z,15.70
2018-06-03T21:57:25.823Z,15.70
2018-06-03T21:59:54.399Z,15.60
2018-06-03T22:02:22.553Z,15.60
2018-06-03T22:04:50.224Z,15.60
2018-06-03T22:07:17.827Z,15.60
2018-06-03T22:09:45.454Z,15.60
2018-06-03T22:12:13.145Z,15.60
2018-06-03T22:24:30.971Z,15.60
2018-06-03T22:26:58.594Z,15.40
2018-06-03T22:29:26.157Z,15.50
2018-06-03T22:31:53.778Z,15.40
2018-06-03T22:34:21.377Z,15.30
2018-06-03T22:36:48.988Z,15.30
2018-06-03T22:39:16.602Z,15.30
2018-06-03T22:41:44.204Z,15.20
2018-06-03T22:44:11.784Z,15.20
2018-06-03T22:46:39.377Z,15.10
2018-06-03T22:51:34.457Z,15.00
2018-06-03T22:56:40.923Z,15.00
2018-06-03T22:59:08.515Z,15.00
2018-06-03T23:01:36.144Z,14.90
2018-06-03T23:06:31.220Z,14.90
2018-06-03T23:08:58.773Z,14.90
2018-06-03T23:13:53.826Z,14.90
2018-06-03T23:16:21.443Z,14.90
2018-06-03T23:21:16.517Z,14.90
2018-06-03T23:26:11.608Z,14.90
2018-06-03T23:28:39.228Z,14.80
2018-06-03T23:31:06.828Z,14.80
2018-06-03T23:38:29.402Z,14.70
2018-06-03T23:40:57.023Z,14.60
2018-06-03T23:45:52.144Z,14.60
2018-06-03T23:50:47.224Z,14.60
2018-06-03T23:53:14.843Z,14.50
2018-06-03T23:55:42.420Z,14.60
2018-06-03T23:58:09.983Z,14.50
